createdAt,value
2022-10-23T00:01:28.784Z,3.63
2022-10-23T00:03:09.566Z,2.88
2022-10-23T00:04:47.819Z,3.25
2022-10-23T00:06:27.663Z,2.92
2022-10-23T00:08:06.544Z,3.40
2022-10-23T00:09:47.564Z,3.30
2022-10-23T00:13:03.581Z,2.85
2022-10-23T00:14:41.831Z,3.00
2022-10-23T00:16:19.677Z,2.67
2022-10-23T00:17:57.213Z,3.17
2022-10-23T00:19:34.799Z,2.22
2022-10-23T00:21:14.388Z,3.20
2022-10-23T00:22:57.573Z,2.95
2022-10-23T00:24:34.320Z,2.58
2022-10-23T00:26:16.548Z,2.70
2022-10-23T00:27:53.998Z,2.88
2022-10-23T00:29:31.887Z,2.85
2022-10-23T00:31:10.740Z,2.78
2022-10-23T00:32:51.574Z,2.85
2022-10-23T00:34:31.374Z,2.90
2022-10-23T00:36:11.861Z,2.58
2022-10-23T00:37:49.588Z,3.28
2022-10-23T00:39:29.290Z,2.72
2022-10-23T00:41:09.674Z,2.60
2022-10-23T00:42:48.786Z,3.22
2022-10-23T00:45:28.712Z,2.38
2022-10-23T00:47:07.063Z,2.08
2022-10-23T00:48:44.126Z,2.30
2022-10-23T00:50:26.445Z,2.28
2022-10-23T00:52:11.783Z,2.38
2022-10-23T00:54:01.159Z,2.33
2022-10-23T00:55:49.388Z,3.00
2022-10-23T00:57:26.720Z,2.10
2022-10-23T00:59:05.158Z,2.10
2022-10-23T01:00:51.169Z,2.45
2022-10-23T01:02:27.689Z,1.98
2022-10-23T01:04:07.569Z,2.10
2022-10-23T01:05:58.946Z,1.92
2022-10-23T01:07:49.779Z,3.15
2022-10-23T01:09:36.275Z,2.10
2022-10-23T01:11:23.429Z,2.28
2022-10-23T01:13:17.508Z,2.30
2022-10-23T01:15:07.415Z,1.63
2022-10-23T01:16:55.060Z,1.65
2022-10-23T01:18:43.684Z,2.00
2022-10-23T01:20:41.624Z,2.13
2022-10-23T01:22:40.744Z,2.55
2022-10-23T01:24:38.140Z,1.90
2022-10-23T01:26:46.533Z,2.00
2022-10-23T01:28:33.356Z,2.15
2022-10-23T01:30:18.222Z,2.28
2022-10-23T01:32:09.513Z,2.55
2022-10-23T01:34:16.730Z,2.17
2022-10-23T01:36:05.868Z,1.65
2022-10-23T01:37:48.519Z,2.40
2022-10-23T01:39:32.497Z,2.28
2022-10-23T01:41:21.197Z,2.83
2022-10-23T01:43:13.926Z,1.70
2022-10-23T01:45:04.676Z,2.50
2022-10-23T01:46:56.479Z,2.35
2022-10-23T01:48:36.741Z,2.42
2022-10-23T01:50:18.236Z,2.35
2022-10-23T01:52:04.443Z,2.05
2022-10-23T01:53:49.059Z,1.95
2022-10-23T01:55:28.936Z,2.10
2022-10-23T01:57:13.341Z,2.53
2022-10-23T01:58:56.579Z,2.40
2022-10-23T02:00:38.574Z,2.30
2022-10-23T02:02:16.275Z,1.98
2022-10-23T02:04:00.345Z,2.42
2022-10-23T02:05:37.016Z,1.95
2022-10-23T02:07:14.907Z,1.90
2022-10-23T02:08:53.889Z,2.42
2022-10-23T02:10:42.850Z,1.95
2022-10-23T02:12:35.426Z,1.98
2022-10-23T02:14:29.691Z,2.30
2022-10-23T02:16:22.835Z,2.10
2022-10-23T02:18:16.028Z,1.80
2022-10-23T02:20:05.136Z,1.60
2022-10-23T02:22:09.563Z,1.67
2022-10-23T02:23:56.212Z,1.38
2022-10-23T02:25:44.955Z,1.70
2022-10-23T02:27:29.789Z,1.80
2022-10-23T02:29:16.917Z,2.05
2022-10-23T02:31:03.246Z,1.35
2022-10-23T02:32:49.592Z,1.52
2022-10-23T02:34:26.874Z,1.30
2022-10-23T02:36:05.526Z,1.60
2022-10-23T02:37:45.416Z,1.20
2022-10-23T02:39:25.083Z,1.42
2022-10-23T02:41:16.097Z,1.65
2022-10-23T02:43:00.870Z,1.27
2022-10-23T02:44:58.385Z,1.10
2022-10-23T02:46:47.127Z,1.25
2022-10-23T02:48:36.049Z,1.27
2022-10-23T02:50:35.579Z,1.30
2022-10-23T02:52:24.456Z,1.58
2022-10-23T02:54:15.264Z,1.70
2022-10-23T02:56:06.156Z,1.80
2022-10-23T02:57:53.137Z,1.70
2022-10-23T02:59:46.334Z,1.85
2022-10-23T03:01:38.749Z,1.52
2022-10-23T03:03:23.701Z,1.50
2022-10-23T03:05:05.086Z,2.08
2022-10-23T03:06:43.935Z,1.98
2022-10-23T03:08:28.997Z,1.60
2022-10-23T03:10:09.177Z,2.50
2022-10-23T03:11:46.726Z,1.90
2022-10-23T03:13:27.178Z,1.73
2022-10-23T03:15:04.764Z,1.60
2022-10-23T03:16:57.064Z,1.45
2022-10-23T03:18:35.974Z,1.70
2022-10-23T03:20:16.726Z,1.30
2022-10-23T03:21:55.413Z,1.10
2022-10-23T03:23:33.982Z,1.63
2022-10-23T03:25:15.448Z,1.42
2022-10-23T03:26:53.332Z,1.27
2022-10-23T03:28:41.562Z,1.48
2022-10-23T03:30:19.710Z,1.13
2022-10-23T03:32:04.980Z,1.00
2022-10-23T03:33:43.227Z,1.73
2022-10-23T03:35:24.381Z,1.42
2022-10-23T03:37:02.607Z,1.25
2022-10-23T03:38:41.248Z,1.17
2022-10-23T03:40:20.985Z,1.05
2022-10-23T03:41:58.878Z,1.45
2022-10-23T03:43:37.393Z,0.85
2022-10-23T03:45:15.057Z,1.00
2022-10-23T03:46:52.808Z,0.98
2022-10-23T03:48:33.561Z,1.15
2022-10-23T03:50:12.456Z,1.02
2022-10-23T03:51:53.538Z,0.95
2022-10-23T03:53:31.636Z,0.98
2022-10-23T03:55:16.494Z,1.13
2022-10-23T03:56:57.789Z,1.45
2022-10-23T03:58:37.344Z,1.20
2022-10-23T04:00:18.340Z,0.90
2022-10-23T04:01:56.959Z,0.93
2022-10-23T04:03:37.213Z,1.00
2022-10-23T04:05:15.548Z,1.60
2022-10-23T04:07:02.882Z,0.90
2022-10-23T04:08:40.632Z,1.08
2022-10-23T04:10:24.133Z,0.98
2022-10-23T04:12:01.515Z,0.80
2022-10-23T04:13:38.759Z,1.10
2022-10-23T04:15:16.644Z,1.08
2022-10-23T04:16:56.812Z,1.35
2022-10-23T04:18:36.458Z,1.10
2022-10-23T04:20:14.473Z,0.85
2022-10-23T04:21:54.650Z,0.90
2022-10-23T04:23:32.329Z,0.95
2022-10-23T04:25:10.741Z,1.27
2022-10-23T04:26:48.603Z,0.85
2022-10-23T04:28:26.674Z,0.82
2022-10-23T04:30:07.803Z,0.77
2022-10-23T04:31:43.862Z,1.73
2022-10-23T04:33:24.382Z,1.00
2022-10-23T04:35:05.379Z,1.23
2022-10-23T04:36:55.545Z,1.27
2022-10-23T04:38:32.610Z,1.77
2022-10-23T04:40:12.571Z,0.73
2022-10-23T04:41:56.416Z,1.38
2022-10-23T04:43:38.322Z,0.98
2022-10-23T04:45:16.155Z,1.08
2022-10-23T04:46:53.932Z,1.60
2022-10-23T04:48:36.691Z,0.90
2022-10-23T04:50:42.118Z,1.00
2022-10-23T04:52:38.995Z,1.00
2022-10-23T04:54:46.299Z,0.93
2022-10-23T04:56:39.228Z,0.80
2022-10-23T04:58:19.466Z,0.98
2022-10-23T04:59:57.509Z,0.77
2022-10-23T05:01:34.774Z,1.10
2022-10-23T05:03:14.136Z,0.80
2022-10-23T05:04:52.660Z,0.70
2022-10-23T05:06:59.603Z,0.60
2022-10-23T05:08:59.251Z,1.20
2022-10-23T05:10:51.197Z,0.73
2022-10-23T05:12:30.234Z,0.60
2022-10-23T05:14:07.978Z,1.08
2022-10-23T05:17:29.454Z,1.13
2022-10-23T05:19:10.273Z,1.02
2022-10-23T05:20:52.565Z,1.05
2022-10-23T05:22:38.232Z,1.77
2022-10-23T05:24:20.277Z,0.60
2022-10-23T05:26:07.611Z,1.17
2022-10-23T05:27:49.110Z,1.20
2022-10-23T05:29:26.887Z,1.30
2022-10-23T05:31:08.034Z,0.55
2022-10-23T05:32:49.407Z,1.30
2022-10-23T05:34:40.832Z,0.93
2022-10-23T05:36:20.246Z,1.00
2022-10-23T05:38:05.848Z,0.80
2022-10-23T05:39:45.443Z,0.50
2022-10-23T05:41:24.998Z,0.73
2022-10-23T05:43:07.166Z,1.00
2022-10-23T05:44:56.976Z,1.00
2022-10-23T05:46:54.902Z,1.05
2022-10-23T05:48:55.184Z,1.02
2022-10-23T05:50:48.152Z,0.85
2022-10-23T05:52:35.484Z,1.65
2022-10-23T05:54:23.071Z,0.93
2022-10-23T05:56:23.700Z,0.60
2022-10-23T05:58:12.604Z,0.90
2022-10-23T06:00:09.568Z,0.85
2022-10-23T06:02:08.232Z,0.93
2022-10-23T06:04:01.518Z,0.60
2022-10-23T06:05:56.363Z,0.93
2022-10-23T06:07:39.291Z,0.57
2022-10-23T06:09:19.892Z,0.77
2022-10-23T06:10:55.811Z,1.23
2022-10-23T06:12:35.598Z,0.85
2022-10-23T06:14:13.498Z,1.23
2022-10-23T06:15:52.605Z,0.85
2022-10-23T06:17:36.368Z,0.70
2022-10-23T06:19:18.783Z,0.85
2022-10-23T06:21:01.886Z,0.95
2022-10-23T06:22:43.692Z,0.98
2022-10-23T06:26:25.582Z,0.70
2022-10-23T06:28:25.538Z,0.70
2022-10-23T06:30:07.863Z,1.08
2022-10-23T06:31:46.243Z,1.45
2022-10-23T06:33:27.107Z,0.60
2022-10-23T06:35:04.878Z,0.55
2022-10-23T06:36:43.291Z,1.05
2022-10-23T06:38:41.964Z,0.52
2022-10-23T06:40:20.056Z,1.05
2022-10-23T06:42:08.140Z,0.70
2022-10-23T06:44:05.109Z,0.80
2022-10-23T06:47:55.318Z,0.98
2022-10-23T06:49:53.702Z,0.80
2022-10-23T06:51:36.833Z,0.95
2022-10-23T06:53:16.049Z,1.15
2022-10-23T06:55:00.151Z,0.70
2022-10-23T06:56:44.800Z,0.60
2022-10-23T06:58:22.759Z,0.80
2022-10-23T07:00:10.993Z,0.47
2022-10-23T07:01:56.860Z,0.60
2022-10-23T07:03:35.445Z,1.15
2022-10-23T07:05:18.430Z,1.08
2022-10-23T07:06:59.603Z,1.50
2022-10-23T07:08:45.863Z,0.85
2022-10-23T07:10:43.749Z,0.98
2022-10-23T07:12:21.441Z,1.08
2022-10-23T07:14:09.352Z,0.80
2022-10-23T07:15:46.582Z,1.15
2022-10-23T07:17:33.093Z,0.77
2022-10-23T07:19:11.721Z,0.85
2022-10-23T07:21:04.601Z,0.80
2022-10-23T07:22:42.731Z,0.60
2022-10-23T07:24:26.399Z,1.10
2022-10-23T07:26:15.383Z,1.00
2022-10-23T07:27:55.807Z,1.10
2022-10-23T07:29:36.052Z,1.23
2022-10-23T07:31:13.995Z,0.90
2022-10-23T07:33:13.527Z,0.98
2022-10-23T07:34:59.450Z,0.95
2022-10-23T07:36:41.966Z,1.02
2022-10-23T07:38:19.454Z,0.85
2022-10-23T07:40:02.466Z,1.23
2022-10-23T07:41:55.645Z,0.93
2022-10-23T07:43:34.677Z,1.48
2022-10-23T07:45:13.545Z,1.00
2022-10-23T07:46:54.702Z,0.80
2022-10-23T07:48:33.590Z,1.20
2022-10-23T07:50:13.983Z,1.55
2022-10-23T07:51:52.804Z,1.85
2022-10-23T07:53:31.395Z,1.85
2022-10-23T07:55:16.651Z,1.50
2022-10-23T07:57:02.784Z,1.10
2022-10-23T07:58:50.893Z,1.55
2022-10-23T08:00:29.438Z,0.95
2022-10-23T08:02:19.233Z,1.80
2022-10-23T08:04:00.799Z,1.42
2022-10-23T08:05:41.340Z,1.75
2022-10-23T08:07:23.064Z,1.90
2022-10-23T08:09:05.334Z,1.35
2022-10-23T08:10:49.945Z,1.75
2022-10-23T08:12:35.084Z,1.30
2022-10-23T08:14:13.620Z,2.00
2022-10-23T08:17:50.582Z,1.35
2022-10-23T08:19:33.164Z,1.83
2022-10-23T08:21:15.999Z,2.33
2022-10-23T08:22:56.372Z,2.58
2022-10-23T08:24:38.852Z,2.63
2022-10-23T08:26:17.807Z,2.50
2022-10-23T08:28:04.174Z,3.10
2022-10-23T08:29:54.379Z,3.38
2022-10-23T08:31:40.421Z,3.15
2022-10-23T08:33:34.898Z,2.65
2022-10-23T08:35:13.953Z,2.22
2022-10-23T08:36:52.028Z,2.00
2022-10-23T08:38:29.528Z,2.40
2022-10-23T08:40:16.855Z,1.63
2022-10-23T08:42:27.557Z,1.40
2022-10-23T08:44:24.767Z,2.30
2022-10-23T08:46:13.983Z,2.33
2022-10-23T08:48:24.893Z,1.80
2022-10-23T08:50:31.804Z,1.83
2022-10-23T08:52:20.301Z,1.42
2022-10-23T08:54:07.043Z,1.90
2022-10-23T08:55:49.933Z,1.23
2022-10-23T08:57:37.748Z,1.10
2022-10-23T08:59:30.140Z,1.27
2022-10-23T09:01:40.450Z,1.25
2022-10-23T09:03:20.383Z,1.17
2022-10-23T09:05:00.307Z,1.58
2022-10-23T09:06:48.224Z,1.17
2022-10-23T09:08:42.034Z,1.13
2022-10-23T09:10:40.646Z,1.42
2022-10-23T09:12:21.130Z,0.77
2022-10-23T09:14:45.518Z,1.00
2022-10-23T09:16:44.358Z,0.90
2022-10-23T09:18:21.748Z,1.67
2022-10-23T09:20:13.826Z,1.48
2022-10-23T09:23:32.369Z,1.42
2022-10-23T09:25:14.446Z,1.20
2022-10-23T09:26:57.524Z,1.23
2022-10-23T09:28:48.891Z,0.80
2022-10-23T09:30:37.077Z,0.90
2022-10-23T09:32:14.535Z,1.35
2022-10-23T09:34:01.082Z,1.00
2022-10-23T09:35:43.106Z,1.13
2022-10-23T09:37:28.325Z,0.90
2022-10-23T09:39:06.504Z,1.10
2022-10-23T09:40:48.753Z,0.82
2022-10-23T09:42:28.027Z,1.02
2022-10-23T09:44:22.676Z,0.70
2022-10-23T09:46:11.031Z,0.82
2022-10-23T09:47:48.498Z,0.73
2022-10-23T09:49:29.173Z,1.08
2022-10-23T09:51:20.487Z,0.88
2022-10-23T09:53:04.876Z,1.00
2022-10-23T09:54:52.861Z,0.80
2022-10-23T09:56:36.830Z,0.90
2022-10-23T09:58:34.207Z,0.90
2022-10-23T10:00:22.912Z,0.60
2022-10-23T10:02:05.801Z,0.93
2022-10-23T10:04:03.917Z,1.23
2022-10-23T10:05:44.886Z,1.75
2022-10-23T10:07:34.668Z,1.10
2022-10-23T10:09:17.319Z,2.47
2022-10-23T10:11:04.023Z,2.25
2022-10-23T10:12:52.991Z,3.88
2022-10-23T10:14:54.095Z,3.30
2022-10-23T10:16:47.424Z,1.67
2022-10-23T10:18:41.510Z,1.40
2022-10-23T10:21:07.285Z,1.52
2022-10-23T10:22:57.655Z,3.88
2022-10-23T10:24:44.549Z,13.25
2022-10-23T10:26:37.603Z,35.72
2022-10-23T10:28:41.551Z,9.25
2022-10-23T10:30:23.499Z,13.43
2022-10-23T10:32:28.083Z,34.40
2022-10-23T10:34:26.557Z,34.50
2022-10-23T10:36:18.411Z,36.03
2022-10-23T10:38:42.812Z,25.08
2022-10-23T10:40:37.869Z,7.05
2022-10-23T10:42:59.782Z,12.88
2022-10-23T10:45:28.952Z,6.47
2022-10-23T10:47:20.161Z,14.82
2022-10-23T10:49:09.187Z,16.25
2022-10-23T10:51:06.895Z,6.57
2022-10-23T10:53:07.489Z,11.73
2022-10-23T10:54:59.557Z,3.28
2022-10-23T10:56:44.508Z,5.35
2022-10-23T10:58:34.592Z,9.05
2022-10-23T11:00:26.057Z,4.40
2022-10-23T11:02:22.864Z,1.73
2022-10-23T11:04:09.646Z,25.83
2022-10-23T11:05:51.677Z,8.10
2022-10-23T11:07:41.035Z,3.70
2022-10-23T11:09:25.375Z,4.03
2022-10-23T11:11:10.905Z,9.85
2022-10-23T11:12:51.179Z,5.82
2022-10-23T11:14:34.633Z,11.85
2022-10-23T11:16:20.505Z,5.80
2022-10-23T11:18:03.883Z,8.10
2022-10-23T11:19:51.735Z,15.77
2022-10-23T11:21:40.950Z,4.88
2022-10-23T11:24:06.413Z,5.82
2022-10-23T11:26:19.712Z,3.55
2022-10-23T11:28:26.637Z,6.15
2022-10-23T11:30:28.306Z,6.05
2022-10-23T11:32:39.032Z,2.63
2022-10-23T11:35:07.764Z,3.15
2022-10-23T11:36:52.748Z,4.82
2022-10-23T11:38:36.851Z,3.60
2022-10-23T11:40:28.199Z,4.72
2022-10-23T11:42:30.420Z,2.30
2022-10-23T11:44:42.118Z,1.95
2022-10-23T11:46:34.918Z,1.85
2022-10-23T11:48:37.895Z,1.45
2022-10-23T11:50:28.732Z,1.73
2022-10-23T11:52:09.600Z,0.80
2022-10-23T11:53:53.919Z,0.98
2022-10-23T11:55:38.262Z,0.80
2022-10-23T11:57:19.732Z,0.65
2022-10-23T11:59:01.818Z,0.68
2022-10-23T12:00:57.845Z,0.70
2022-10-23T12:02:43.635Z,0.68
2022-10-23T12:04:31.218Z,0.70
2022-10-23T12:06:19.447Z,0.60
2022-10-23T12:08:03.013Z,0.85
2022-10-23T12:09:49.114Z,0.70
2022-10-23T12:11:49.420Z,0.85
2022-10-23T12:13:49.496Z,1.00
2022-10-23T12:15:29.092Z,0.63
2022-10-23T12:17:30.845Z,0.93
2022-10-23T12:19:24.493Z,0.90
2022-10-23T12:21:02.520Z,0.60
2022-10-23T12:22:53.985Z,0.82
2022-10-23T12:27:09.436Z,0.80
2022-10-23T12:29:00.044Z,0.63
2022-10-23T12:30:47.792Z,1.08
2022-10-23T12:32:46.268Z,1.05
2022-10-23T12:34:42.075Z,0.90
2022-10-23T12:36:55.552Z,0.77
2022-10-23T12:38:35.722Z,0.88
2022-10-23T12:40:16.691Z,1.25
2022-10-23T12:41:57.154Z,0.73
2022-10-23T12:43:39.839Z,1.00
2022-10-23T12:45:23.125Z,1.00
2022-10-23T12:47:06.821Z,1.30
2022-10-23T12:48:51.694Z,0.80
2022-10-23T12:50:35.023Z,1.05
2022-10-23T12:52:22.315Z,0.93
2022-10-23T12:54:00.606Z,1.23
2022-10-23T12:55:56.251Z,1.23
2022-10-23T12:57:34.389Z,1.10
2022-10-23T12:59:23.850Z,1.00
2022-10-23T13:01:04.811Z,1.00
2022-10-23T13:02:41.910Z,1.00
2022-10-23T13:04:34.243Z,1.30
2022-10-23T13:06:14.662Z,1.10
2022-10-23T13:07:53.876Z,0.95
2022-10-23T13:09:45.468Z,1.23
2022-10-23T13:11:27.182Z,1.17
2022-10-23T13:13:12.014Z,0.95
2022-10-23T13:15:04.464Z,0.80
2022-10-23T13:17:03.947Z,1.05
2022-10-23T13:18:46.620Z,1.38
2022-10-23T13:20:28.777Z,1.13
2022-10-23T13:22:19.813Z,0.90
2022-10-23T13:24:01.601Z,1.05
2022-10-23T13:25:42.324Z,1.38
2022-10-23T13:27:35.111Z,0.80
2022-10-23T13:31:25.147Z,1.48
2022-10-23T13:33:04.827Z,1.20
2022-10-23T13:35:03.785Z,0.93
2022-10-23T13:37:01.120Z,1.45
2022-10-23T13:38:41.185Z,1.30
2022-10-23T13:40:27.757Z,1.00
2022-10-23T13:42:16.718Z,0.95
2022-10-23T13:43:54.121Z,1.20
2022-10-23T13:45:32.339Z,1.23
2022-10-23T13:47:20.238Z,1.20
2022-10-23T13:49:03.316Z,1.10
2022-10-23T13:50:40.357Z,0.93
2022-10-23T13:52:26.309Z,0.93
2022-10-23T13:54:03.546Z,1.30
2022-10-23T13:55:48.660Z,1.80
2022-10-23T13:57:27.807Z,1.52
2022-10-23T13:59:05.484Z,1.40
2022-10-23T14:00:44.571Z,1.10
2022-10-23T14:02:25.904Z,1.40
2022-10-23T14:04:06.733Z,1.10
2022-10-23T14:05:45.170Z,1.20
2022-10-23T14:07:24.528Z,0.95
2022-10-23T14:09:06.764Z,1.67
2022-10-23T14:10:44.267Z,0.70
2022-10-23T14:12:24.058Z,1.30
2022-10-23T14:14:04.741Z,0.90
2022-10-23T14:15:44.421Z,1.10
2022-10-23T14:17:22.409Z,1.02
2022-10-23T14:19:01.150Z,0.90
2022-10-23T14:20:45.763Z,1.10
2022-10-23T14:22:23.807Z,0.90
2022-10-23T14:24:02.798Z,1.27
2022-10-23T14:25:40.661Z,1.65
2022-10-23T14:27:20.065Z,1.27
2022-10-23T14:29:02.342Z,1.08
2022-10-23T14:30:45.232Z,1.00
2022-10-23T14:32:23.298Z,1.17
2022-10-23T14:34:07.957Z,1.25
2022-10-23T14:35:47.391Z,1.20
2022-10-23T14:37:28.262Z,1.30
2022-10-23T14:39:06.996Z,1.13
2022-10-23T14:40:44.759Z,1.23
2022-10-23T14:42:22.629Z,1.02
2022-10-23T14:44:03.302Z,1.20
2022-10-23T14:45:44.181Z,0.93
2022-10-23T14:47:21.957Z,0.98
2022-10-23T14:49:02.291Z,1.00
2022-10-23T14:50:45.664Z,1.10
2022-10-23T14:52:26.381Z,0.98
2022-10-23T14:54:05.666Z,1.00
2022-10-23T14:55:43.739Z,1.25
2022-10-23T14:57:22.672Z,1.52
2022-10-23T14:59:03.582Z,1.30
2022-10-23T15:00:43.686Z,1.15
2022-10-23T15:02:21.802Z,0.95
2022-10-23T15:04:00.005Z,1.00
2022-10-23T15:05:45.650Z,1.35
2022-10-23T15:07:25.348Z,1.40
2022-10-23T15:09:02.751Z,1.00
2022-10-23T15:10:41.914Z,0.93
2022-10-23T15:12:23.256Z,1.08
2022-10-23T15:14:02.911Z,1.08
2022-10-23T15:15:41.321Z,1.08
2022-10-23T15:17:18.729Z,1.48
2022-10-23T15:18:55.805Z,1.13
2022-10-23T15:20:33.396Z,1.50
2022-10-23T15:22:11.798Z,1.58
2022-10-23T15:23:53.886Z,1.20
2022-10-23T15:25:33.168Z,1.23
2022-10-23T15:27:11.426Z,1.08
2022-10-23T15:28:49.139Z,1.40
2022-10-23T15:30:32.948Z,1.20
2022-10-23T15:32:13.289Z,0.93
2022-10-23T15:35:34.508Z,1.05
2022-10-23T15:37:13.514Z,1.23
2022-10-23T15:38:53.997Z,1.00
2022-10-23T15:40:31.992Z,1.50
2022-10-23T15:42:10.882Z,1.20
2022-10-23T15:45:30.605Z,1.35
2022-10-23T15:47:10.330Z,1.10
2022-10-23T15:48:47.982Z,1.10
2022-10-23T15:50:26.363Z,1.50
2022-10-23T15:52:07.320Z,1.27
2022-10-23T15:53:48.402Z,1.50
2022-10-23T15:55:28.997Z,1.40
2022-10-23T16:00:21.967Z,1.27
2022-10-23T16:01:59.663Z,1.52
2022-10-23T16:03:43.411Z,1.30
2022-10-23T16:05:21.808Z,1.58
2022-10-23T16:06:59.968Z,1.13
2022-10-23T16:08:38.117Z,1.20
2022-10-23T16:10:15.441Z,1.30
2022-10-23T16:11:55.054Z,0.93
2022-10-23T16:13:33.060Z,1.50
2022-10-23T16:15:10.733Z,1.15
2022-10-23T16:16:52.280Z,1.40
2022-10-23T16:18:30.121Z,1.85
2022-10-23T16:20:08.987Z,1.60
2022-10-23T16:21:46.779Z,1.50
2022-10-23T16:23:24.635Z,2.10
2022-10-23T16:25:03.014Z,1.90
2022-10-23T16:26:46.543Z,1.45
2022-10-23T16:28:26.078Z,2.00
2022-10-23T16:30:08.163Z,1.40
2022-10-23T16:31:45.706Z,1.20
2022-10-23T16:33:24.421Z,1.67
2022-10-23T16:35:02.324Z,1.58
2022-10-23T16:36:51.089Z,1.30
2022-10-23T16:38:45.455Z,1.80
2022-10-23T16:40:23.999Z,1.45
2022-10-23T16:42:21.318Z,1.63
2022-10-23T16:44:21.279Z,1.35
2022-10-23T16:46:10.381Z,1.40
2022-10-23T16:47:49.038Z,1.40
2022-10-23T16:49:28.303Z,2.20
2022-10-23T16:52:49.102Z,1.20
2022-10-23T16:54:30.418Z,1.95
2022-10-23T16:56:09.788Z,1.58
2022-10-23T16:57:48.020Z,1.42
2022-10-23T16:59:28.173Z,1.48
2022-10-23T17:01:08.433Z,1.30
2022-10-23T17:02:47.948Z,1.35
2022-10-23T17:04:26.393Z,2.03
2022-10-23T17:06:08.719Z,1.50
2022-10-23T17:07:47.935Z,1.40
2022-10-23T17:09:32.064Z,1.60
2022-10-23T17:11:14.721Z,1.48
2022-10-23T17:12:52.293Z,1.77
2022-10-23T17:14:32.949Z,1.63
2022-10-23T17:16:17.264Z,1.65
2022-10-23T17:18:03.006Z,1.23
2022-10-23T17:19:46.509Z,1.60
2022-10-23T17:21:28.745Z,1.63
2022-10-23T17:23:09.171Z,1.77
2022-10-23T17:24:52.989Z,1.85
2022-10-23T17:26:39.627Z,1.52
2022-10-23T17:28:16.319Z,2.10
2022-10-23T17:29:57.950Z,2.08
2022-10-23T17:31:40.472Z,2.72
2022-10-23T17:33:17.442Z,1.98
2022-10-23T17:34:57.538Z,4.15
2022-10-23T17:36:37.769Z,4.47
2022-10-23T17:38:18.548Z,2.63
2022-10-23T17:41:39.583Z,4.53
2022-10-23T17:43:17.074Z,3.80
2022-10-23T17:44:57.277Z,4.03
2022-10-23T17:48:13.827Z,2.38
2022-10-23T17:49:51.087Z,2.22
2022-10-23T17:51:34.030Z,2.30
2022-10-23T17:53:13.263Z,2.53
2022-10-23T17:54:55.035Z,1.90
2022-10-23T17:56:36.123Z,2.38
2022-10-23T17:58:16.853Z,2.40
2022-10-23T18:01:33.549Z,1.50
2022-10-23T18:03:08.269Z,1.60
2022-10-23T18:04:42.337Z,1.60
2022-10-23T18:06:24.427Z,2.10
2022-10-23T18:08:01.623Z,1.88
2022-10-23T18:09:35.649Z,2.28
2022-10-23T18:11:15.758Z,1.95
2022-10-23T18:12:49.173Z,2.03
2022-10-23T18:14:25.124Z,2.20
2022-10-23T18:16:04.768Z,4.18
2022-10-23T18:17:37.909Z,2.05
2022-10-23T18:19:12.131Z,2.17
2022-10-23T18:20:46.200Z,1.30
2022-10-23T18:22:20.091Z,2.28
2022-10-23T18:23:53.914Z,1.63
2022-10-23T18:25:27.193Z,2.22
2022-10-23T18:27:00.429Z,1.70
2022-10-23T18:28:33.953Z,1.73
2022-10-23T18:30:09.314Z,1.92
2022-10-23T18:31:46.229Z,2.55
2022-10-23T18:33:20.351Z,2.92
2022-10-23T18:34:54.203Z,2.08
2022-10-23T18:36:31.456Z,1.67
2022-10-23T18:38:05.951Z,4.95
2022-10-23T18:39:39.215Z,2.05
2022-10-23T18:41:12.628Z,2.53
2022-10-23T18:42:46.566Z,1.92
2022-10-23T18:44:22.115Z,2.08
2022-10-23T18:46:00.337Z,3.20
2022-10-23T18:47:35.661Z,2.35
2022-10-23T18:49:08.951Z,2.05
2022-10-23T18:50:45.204Z,1.70
2022-10-23T18:52:32.288Z,1.70
2022-10-23T18:54:15.603Z,2.60
2022-10-23T18:55:54.335Z,2.38
2022-10-23T18:57:31.824Z,1.38
2022-10-23T18:59:12.688Z,2.03
2022-10-23T19:00:53.393Z,2.38
2022-10-23T19:02:32.233Z,6.03
2022-10-23T19:04:13.799Z,1.75
2022-10-23T19:05:56.656Z,2.42
2022-10-23T19:07:36.076Z,3.10
2022-10-23T19:09:16.059Z,1.73
2022-10-23T19:11:00.970Z,3.65
2022-10-23T19:12:40.943Z,4.32
2022-10-23T19:14:19.201Z,2.65
2022-10-23T19:16:01.917Z,2.13
2022-10-23T19:17:41.165Z,3.92
2022-10-23T19:19:28.489Z,4.32
2022-10-23T19:21:09.171Z,2.95
2022-10-23T19:22:49.904Z,1.73
2022-10-23T19:24:34.540Z,1.98
2022-10-23T19:26:15.564Z,1.73
2022-10-23T19:27:55.483Z,2.05
2022-10-23T19:29:33.608Z,1.90
2022-10-23T19:31:14.809Z,5.05
2022-10-23T19:32:52.200Z,2.42
2022-10-23T19:34:31.785Z,2.42
2022-10-23T19:36:14.503Z,3.25
2022-10-23T19:37:57.375Z,2.22
2022-10-23T19:39:35.346Z,2.25
2022-10-23T19:41:13.669Z,2.10
2022-10-23T19:42:51.542Z,2.65
2022-10-23T19:44:28.991Z,1.52
2022-10-23T19:46:12.826Z,2.10
2022-10-23T19:47:53.818Z,1.95
2022-10-23T19:49:35.147Z,1.67
2022-10-23T19:51:15.225Z,1.65
2022-10-23T19:52:52.378Z,1.48
2022-10-23T19:54:31.978Z,1.52
2022-10-23T19:56:11.730Z,1.70
2022-10-23T19:57:52.366Z,1.67
2022-10-23T19:59:31.620Z,1.55
2022-10-23T20:01:18.108Z,1.20
2022-10-23T20:02:56.117Z,1.52
2022-10-23T20:04:36.153Z,1.65
2022-10-23T20:06:15.509Z,1.52
2022-10-23T20:07:59.556Z,2.00
2022-10-23T20:09:36.993Z,1.40
2022-10-23T20:11:21.131Z,1.20
2022-10-23T20:13:18.705Z,4.43
2022-10-23T20:14:56.874Z,1.80
2022-10-23T20:16:38.160Z,1.60
2022-10-23T20:18:17.248Z,4.18
2022-10-23T20:19:58.061Z,2.45
2022-10-23T20:21:41.642Z,4.22
2022-10-23T20:23:18.732Z,2.72
2022-10-23T20:24:57.053Z,1.40
2022-10-23T20:26:34.760Z,1.63
2022-10-23T20:28:14.429Z,1.40
2022-10-23T20:29:54.272Z,7.22
2022-10-23T20:31:32.977Z,2.92
2022-10-23T20:33:11.180Z,1.40
2022-10-23T20:34:49.497Z,1.77
2022-10-23T20:36:31.750Z,3.00
2022-10-23T20:38:09.497Z,10.15
2022-10-23T20:39:47.990Z,4.63
2022-10-23T20:41:27.968Z,3.42
2022-10-23T20:43:07.304Z,1.88
2022-10-23T20:44:47.134Z,2.08
2022-10-23T20:46:25.685Z,1.63
2022-10-23T20:48:03.573Z,1.33
2022-10-23T20:49:41.667Z,3.58
2022-10-23T20:51:24.693Z,3.42
2022-10-23T20:53:06.440Z,4.57
2022-10-23T20:54:44.822Z,1.90
2022-10-23T20:56:24.961Z,1.73
2022-10-23T20:58:03.296Z,1.55
2022-10-23T20:59:40.845Z,1.40
2022-10-23T21:01:24.758Z,1.80
2022-10-23T21:03:02.357Z,1.30
2022-10-23T21:04:40.462Z,1.20
2022-10-23T21:06:24.244Z,3.45
2022-10-23T21:08:02.909Z,1.80
2022-10-23T21:09:40.706Z,1.40
2022-10-23T21:11:20.101Z,1.40
2022-10-23T21:12:57.259Z,1.90
2022-10-23T21:14:35.335Z,2.95
2022-10-23T21:16:19.146Z,1.83
2022-10-23T21:18:03.989Z,1.75
2022-10-23T21:19:51.744Z,2.35
2022-10-23T21:21:30.266Z,1.90
2022-10-23T21:23:10.409Z,12.35
2022-10-23T21:24:48.413Z,2.80
2022-10-23T21:26:27.257Z,2.50
2022-10-23T21:28:05.400Z,2.10
2022-10-23T21:29:43.773Z,1.40
2022-10-23T21:31:22.752Z,1.50
2022-10-23T21:33:00.300Z,3.00
2022-10-23T21:34:38.919Z,1.52
2022-10-23T21:36:19.475Z,4.15
2022-10-23T21:37:57.315Z,1.65
2022-10-23T21:39:36.852Z,4.38
2022-10-23T21:41:18.321Z,2.45
2022-10-23T21:42:57.507Z,1.80
2022-10-23T21:44:34.737Z,1.90
2022-10-23T21:46:16.897Z,1.23
2022-10-23T21:47:54.398Z,2.35
2022-10-23T21:49:31.701Z,4.63
2022-10-23T21:51:09.829Z,2.17
2022-10-23T21:52:48.445Z,1.70
2022-10-23T21:54:28.813Z,1.35
2022-10-23T21:56:09.245Z,1.52
2022-10-23T21:57:47.261Z,1.45
2022-10-23T21:59:29.985Z,1.48
2022-10-23T22:01:10.281Z,1.60
2022-10-23T22:02:48.509Z,1.27
2022-10-23T22:04:26.788Z,1.23
2022-10-23T22:06:10.679Z,1.45
2022-10-23T22:07:54.288Z,1.92
2022-10-23T22:09:32.669Z,1.30
2022-10-23T22:11:15.690Z,1.05
2022-10-23T22:12:52.877Z,1.63
2022-10-23T22:14:31.183Z,1.13
2022-10-23T22:16:09.275Z,1.40
2022-10-23T22:17:47.454Z,1.42
2022-10-23T22:19:26.352Z,2.10
2022-10-23T22:21:07.130Z,1.42
2022-10-23T22:22:44.691Z,1.50
2022-10-23T22:24:25.118Z,1.70
2022-10-23T22:26:06.527Z,1.38
2022-10-23T22:27:45.494Z,2.25
2022-10-23T22:29:26.676Z,1.60
2022-10-23T22:31:04.943Z,2.20
2022-10-23T22:32:42.775Z,1.60
2022-10-23T22:36:23.289Z,1.75
2022-10-23T22:38:00.714Z,1.58
2022-10-23T22:39:43.794Z,1.95
2022-10-23T22:41:27.915Z,1.70
2022-10-23T22:43:07.564Z,1.73
2022-10-23T22:44:48.398Z,1.30
2022-10-23T22:46:26.958Z,1.42
2022-10-23T22:48:04.610Z,1.60
2022-10-23T22:49:42.656Z,1.95
2022-10-23T22:51:22.935Z,1.55
2022-10-23T22:53:03.579Z,1.30
2022-10-23T22:54:45.000Z,1.35
2022-10-23T22:56:25.885Z,1.67
2022-10-23T22:58:05.214Z,1.73
2022-10-23T22:59:43.500Z,1.33
2022-10-23T23:01:26.902Z,1.50
2022-10-23T23:03:07.167Z,1.60
2022-10-23T23:04:45.255Z,1.92
2022-10-23T23:06:23.318Z,1.85
2022-10-23T23:08:01.636Z,1.40
2022-10-23T23:09:42.459Z,2.13
2022-10-23T23:11:22.318Z,1.33
2022-10-23T23:12:59.784Z,1.67
2022-10-23T23:14:39.664Z,1.60
2022-10-23T23:16:24.187Z,1.80
2022-10-23T23:18:02.209Z,1.50
2022-10-23T23:19:40.224Z,1.95
2022-10-23T23:21:18.940Z,1.55
2022-10-23T23:22:57.043Z,1.35
2022-10-23T23:24:34.778Z,1.95
2022-10-23T23:26:11.526Z,1.52
2022-10-23T23:27:51.125Z,2.03
2022-10-23T23:29:29.439Z,1.70